sensor_id;sensor_type;location;lat;lon;timestamp;P1;durP1;ratioP1;P2;durP2;ratioP2
20855;SDS011;63058;49.424;8.420;2022-12-07T05:58:26;5.33;;;4.60;;
20855;SDS011;63058;49.424;8.420;2022-12-07T06:01:10;4.83;;;4.00;;
20855;SDS011;63058;49.424;8.420;2022-12-07T06:03:36;5.23;;;4.57;;
20855;SDS011;63058;49.424;8.420;2022-12-07T06:06:01;5.70;;;4.73;;
20855;SDS011;63058;49.424;8.420;2022-12-07T06:08:29;5.23;;;4.60;;
20855;SDS011;63058;49.424;8.420;2022-12-07T06:10:54;6.27;;;5.10;;
20855;SDS011;63058;49.424;8.420;2022-12-07T06:13:40;5.50;;;4.40;;
20855;SDS011;63058;49.424;8.420;2022-12-07T06:16:06;7.43;;;4.80;;
20855;SDS011;63058;49.424;8.420;2022-12-07T06:18:32;6.07;;;4.70;;
20855;SDS011;63058;49.424;8.420;2022-12-07T06:20:58;5.07;;;4.50;;
20855;SDS011;63058;49.424;8.420;2022-12-07T06:23:23;6.37;;;5.33;;
20855;SDS011;63058;49.424;8.420;2022-12-07T06:25:49;8.23;;;6.07;;
20855;SDS011;63058;49.424;8.420;2022-12-07T06:28:16;6.27;;;4.80;;
20855;SDS011;63058;49.424;8.420;2022-12-07T06:30:43;7.43;;;4.90;;
20855;SDS011;63058;49.424;8.420;2022-12-07T06:33:08;5.53;;;4.90;;
20855;SDS011;63058;49.424;8.420;2022-12-07T06:35:35;5.77;;;4.70;;
20855;SDS011;63058;49.424;8.420;2022-12-07T06:38:03;5.33;;;4.27;;
20855;SDS011;63058;49.424;8.420;2022-12-07T06:40:28;4.83;;;4.33;;
20855;SDS011;63058;49.424;8.420;2022-12-07T06:42:54;6.20;;;4.83;;
20855;SDS011;63058;49.424;8.420;2022-12-07T06:45:20;6.03;;;4.60;;
20855;SDS011;63058;49.424;8.420;2022-12-07T06:47:46;5.70;;;4.73;;
20855;SDS011;63058;49.424;8.420;2022-12-07T06:50:16;6.03;;;4.70;;
20855;SDS011;63058;49.424;8.420;2022-12-07T06:52:42;5.30;;;4.53;;
20855;SDS011;63058;49.424;8.420;2022-12-07T06:55:07;5.93;;;4.83;;
20855;SDS011;63058;49.424;8.420;2022-12-07T06:57:33;7.13;;;5.10;;
20855;SDS011;63058;49.424;8.420;2022-12-07T06:59:59;6.73;;;5.50;;
20855;SDS011;63058;49.424;8.420;2022-12-07T07:02:25;6.27;;;5.33;;
20855;SDS011;63058;49.424;8.420;2022-12-07T07:04:51;6.00;;;4.83;;
20855;SDS011;63058;49.424;8.420;2022-12-07T07:07:18;5.43;;;4.77;;
20855;SDS011;63058;49.424;8.420;2022-12-07T07:09:43;6.37;;;4.70;;
20855;SDS011;63058;49.424;8.420;2022-12-07T07:12:10;5.53;;;4.40;;
20855;SDS011;63058;49.424;8.420;2022-12-07T07:14:36;6.20;;;4.30;;
20855;SDS011;63058;49.424;8.420;2022-12-07T07:17:03;4.50;;;3.87;;
20855;SDS011;63058;49.424;8.420;2022-12-07T07:19:29;5.73;;;4.60;;
20855;SDS011;63058;49.424;8.420;2022-12-07T07:21:56;4.47;;;3.93;;
20855;SDS011;63058;49.424;8.420;2022-12-07T07:24:21;4.73;;;4.00;;
20855;SDS011;63058;49.424;8.420;2022-12-07T07:26:47;4.73;;;4.07;;
20855;SDS011;63058;49.424;8.420;2022-12-07T07:29:13;4.47;;;3.87;;
20855;SDS011;63058;49.424;8.420;2022-12-07T07:31:38;5.60;;;4.70;;
20855;SDS011;63058;49.424;8.420;2022-12-07T07:34:04;5.47;;;4.43;;
20855;SDS011;63058;49.424;8.420;2022-12-07T07:36:30;5.50;;;4.77;;
20855;SDS011;63058;49.424;8.420;2022-12-07T07:38:55;6.47;;;5.43;;
20855;SDS011;63058;49.424;8.420;2022-12-07T07:41:22;6.43;;;5.33;;
20855;SDS011;63058;49.424;8.420;2022-12-07T07:43:49;5.80;;;4.90;;
20855;SDS011;63058;49.424;8.420;2022-12-07T07:46:17;8.10;;;6.73;;
20855;SDS011;63058;49.424;8.420;2022-12-07T07:48:43;8.13;;;6.23;;
20855;SDS011;63058;49.424;8.420;2022-12-07T07:51:09;8.80;;;6.73;;
20855;SDS011;63058;49.424;8.420;2022-12-07T07:53:35;6.30;;;5.17;;
20855;SDS011;63058;49.424;8.420;2022-12-07T07:56:00;6.50;;;5.40;;
20855;SDS011;63058;49.424;8.420;2022-12-07T07:58:26;7.63;;;6.10;;
20855;SDS011;63058;49.424;8.420;2022-12-07T08:00:52;6.33;;;5.40;;
20855;SDS011;63058;49.424;8.420;2022-12-07T08:03:21;6.10;;;5.30;;
20855;SDS011;63058;49.424;8.420;2022-12-07T08:05:47;7.70;;;5.67;;
20855;SDS011;63058;49.424;8.420;2022-12-07T08:08:13;6.60;;;5.53;;
20855;SDS011;63058;49.424;8.420;2022-12-07T08:10:39;7.43;;;6.17;;
20855;SDS011;63058;49.424;8.420;2022-12-07T08:13:04;7.17;;;6.47;;
20855;SDS011;63058;49.424;8.420;2022-12-07T08:15:38;7.70;;;6.07;;
20855;SDS011;63058;49.424;8.420;2022-12-07T08:18:05;7.47;;;6.37;;
20855;SDS011;63058;49.424;8.420;2022-12-07T08:20:32;6.30;;;5.43;;
20855;SDS011;63058;49.424;8.420;2022-12-07T08:22:59;6.83;;;5.47;;
20855;SDS011;63058;49.424;8.420;2022-12-07T08:25:25;6.57;;;5.47;;
20855;SDS011;63058;49.424;8.420;2022-12-07T08:27:53;6.43;;;4.97;;
20855;SDS011;63058;49.424;8.420;2022-12-07T08:30:19;6.50;;;5.23;;
20855;SDS011;63058;49.424;8.420;2022-12-07T08:32:45;7.20;;;5.40;;
20855;SDS011;63058;49.424;8.420;2022-12-07T08:35:12;6.57;;;5.07;;
20855;SDS011;63058;49.424;8.420;2022-12-07T08:37:38;6.97;;;5.80;;
20855;SDS011;63058;49.424;8.420;2022-12-07T08:40:04;7.07;;;5.47;;
20855;SDS011;63058;49.424;8.420;2022-12-07T08:42:31;6.57;;;4.93;;
20855;SDS011;63058;49.424;8.420;2022-12-07T08:45:06;5.97;;;4.95;;
20855;SDS011;63058;49.424;8.420;2022-12-07T08:47:34;6.03;;;5.23;;
20855;SDS011;63058;49.424;8.420;2022-12-07T08:50:02;5.93;;;5.00;;
20855;SDS011;63058;49.424;8.420;2022-12-07T08:52:32;7.67;;;5.90;;
20855;SDS011;63058;49.424;8.420;2022-12-07T08:54:58;7.20;;;5.55;;
20855;SDS011;63058;49.424;8.420;2022-12-07T08:57:26;6.30;;;5.15;;
20855;SDS011;63058;49.424;8.420;2022-12-07T08:59:54;6.57;;;5.53;;
20855;SDS011;63058;49.424;8.420;2022-12-07T09:02:19;7.07;;;5.83;;
20855;SDS011;63058;49.424;8.420;2022-12-07T09:04:45;7.23;;;5.63;;
20855;SDS011;63058;49.424;8.420;2022-12-07T09:07:11;6.63;;;5.32;;
20855;SDS011;63058;49.424;8.420;2022-12-07T09:09:37;6.23;;;5.37;;
20855;SDS011;63058;49.424;8.420;2022-12-07T09:12:02;7.00;;;5.60;;
20855;SDS011;63058;49.424;8.420;2022-12-07T09:14:28;7.15;;;5.72;;
20855;SDS011;63058;49.424;8.420;2022-12-07T09:16:54;7.73;;;6.07;;
20855;SDS011;63058;49.424;8.420;2022-12-07T09:19:20;8.43;;;6.00;;
20855;SDS011;63058;49.424;8.420;2022-12-07T09:21:46;5.97;;;5.07;;
20855;SDS011;63058;49.424;8.420;2022-12-07T09:24:12;7.68;;;6.25;;
20855;SDS011;63058;49.424;8.420;2022-12-07T09:26:38;7.07;;;5.40;;
20855;SDS011;63058;49.424;8.420;2022-12-07T09:29:05;6.82;;;5.70;;
20855;SDS011;63058;49.424;8.420;2022-12-07T09:31:31;7.27;;;5.87;;
20855;SDS011;63058;49.424;8.420;2022-12-07T09:33:57;8.43;;;6.17;;
20855;SDS011;63058;49.424;8.420;2022-12-07T09:36:24;8.13;;;6.67;;
20855;SDS011;63058;49.424;8.420;2022-12-07T09:38:51;8.20;;;6.13;;
20855;SDS011;63058;49.424;8.420;2022-12-07T09:41:17;9.55;;;6.13;;
20855;SDS011;63058;49.424;8.420;2022-12-07T09:43:44;10.60;;;7.00;;
20855;SDS011;63058;49.424;8.420;2022-12-07T09:46:15;6.95;;;6.20;;
20855;SDS011;63058;49.424;8.420;2022-12-07T09:48:44;8.80;;;6.93;;
20855;SDS011;63058;49.424;8.420;2022-12-07T09:51:14;10.82;;;7.53;;
20855;SDS011;63058;49.424;8.420;2022-12-07T09:53:48;8.87;;;7.47;;
20855;SDS011;63058;49.424;8.420;2022-12-07T09:56:15;9.40;;;7.77;;
20855;SDS011;63058;49.424;8.420;2022-12-07T09:58:43;10.30;;;8.45;;
20855;SDS011;63058;49.424;8.420;2022-12-07T10:01:12;9.40;;;7.72;;
20855;SDS011;63058;49.424;8.420;2022-12-07T10:03:53;10.57;;;7.15;;
20855;SDS011;63058;49.424;8.420;2022-12-07T10:06:25;9.07;;;7.47;;
20855;SDS011;63058;49.424;8.420;2022-12-07T10:08:52;8.35;;;7.45;;
20855;SDS011;63058;49.424;8.420;2022-12-07T10:11:18;9.30;;;7.50;;
20855;SDS011;63058;49.424;8.420;2022-12-07T10:19:11;9.50;;;6.88;;
20855;SDS011;63058;49.424;8.420;2022-12-07T10:22:33;7.60;;;6.57;;
20855;SDS011;63058;49.424;8.420;2022-12-07T10:24:34;8.82;;;7.07;;
20855;SDS011;63058;49.424;8.420;2022-12-07T10:27:00;9.80;;;7.07;;
20855;SDS011;63058;49.424;8.420;2022-12-07T10:29:29;9.10;;;6.88;;
20855;SDS011;63058;49.424;8.420;2022-12-07T10:32:01;8.75;;;6.63;;
20855;SDS011;63058;49.424;8.420;2022-12-07T10:34:39;9.27;;;7.18;;
20855;SDS011;63058;49.424;8.420;2022-12-07T10:42:20;8.05;;;6.43;;
20855;SDS011;63058;49.424;8.420;2022-12-07T10:45:14;7.65;;;5.75;;
20855;SDS011;63058;49.424;8.420;2022-12-07T10:47:49;5.75;;;4.68;;
20855;SDS011;63058;49.424;8.420;2022-12-07T10:50:47;6.38;;;5.35;;
20855;SDS011;63058;49.424;8.420;2022-12-07T10:57:14;6.72;;;5.28;;
20855;SDS011;63058;49.424;8.420;2022-12-07T10:59:38;6.68;;;4.95;;
20855;SDS011;63058;49.424;8.420;2022-12-07T11:05:19;6.47;;;5.30;;
20855;SDS011;63058;49.424;8.420;2022-12-07T11:08:00;6.30;;;5.35;;
20855;SDS011;63058;49.424;8.420;2022-12-07T11:13:56;5.93;;;5.32;;
20855;SDS011;63058;49.424;8.420;2022-12-07T12:54:04;4.55;;;2.80;;
20855;SDS011;63058;49.424;8.420;2022-12-07T13:01:50;4.43;;;3.08;;
20855;SDS011;63058;49.424;8.420;2022-12-07T13:04:48;4.28;;;2.90;;
20855;SDS011;63058;49.424;8.420;2022-12-07T13:20:54;6.15;;;2.65;;
20855;SDS011;63058;49.424;8.420;2022-12-07T13:28:37;4.68;;;2.63;;
20855;SDS011;63058;49.424;8.420;2022-12-07T13:34:04;5.70;;;3.10;;
20855;SDS011;63058;49.424;8.420;2022-12-07T13:36:50;4.45;;;3.10;;
20855;SDS011;63058;49.424;8.420;2022-12-07T13:39:20;4.40;;;3.25;;
20855;SDS011;63058;49.424;8.420;2022-12-07T13:41:52;4.43;;;3.20;;
20855;SDS011;63058;49.424;8.420;2022-12-07T13:44:23;7.03;;;3.25;;
20855;SDS011;63058;49.424;8.420;2022-12-07T13:46:57;4.30;;;3.45;;
20855;SDS011;63058;49.424;8.420;2022-12-07T13:49:47;6.28;;;3.58;;
20855;SDS011;63058;49.424;8.420;2022-12-07T13:52:25;4.72;;;3.95;;
20855;SDS011;63058;49.424;8.420;2022-12-07T13:57:26;5.90;;;4.07;;
20855;SDS011;63058;49.424;8.420;2022-12-07T13:59:53;5.80;;;3.92;;
20855;SDS011;63058;49.424;8.420;2022-12-07T14:02:20;6.10;;;4.07;;
20855;SDS011;63058;49.424;8.420;2022-12-07T14:07:48;6.95;;;3.55;;
20855;SDS011;63058;49.424;8.420;2022-12-07T14:10:27;3.97;;;3.17;;
20855;SDS011;63058;49.424;8.420;2022-12-07T14:12:54;3.55;;;2.95;;
20855;SDS011;63058;49.424;8.420;2022-12-07T14:15:22;3.88;;;2.65;;
20855;SDS011;63058;49.424;8.420;2022-12-07T14:17:56;2.95;;;2.22;;
20855;SDS011;63058;49.424;8.420;2022-12-07T14:20:39;3.10;;;2.17;;
20855;SDS011;63058;49.424;8.420;2022-12-07T14:23:19;3.33;;;2.00;;
20855;SDS011;63058;49.424;8.420;2022-12-07T14:25:51;3.05;;;2.30;;
20855;SDS011;63058;49.424;8.420;2022-12-07T14:28:28;3.30;;;2.13;;
20855;SDS011;63058;49.424;8.420;2022-12-07T14:30:55;3.90;;;2.40;;
20855;SDS011;63058;49.424;8.420;2022-12-07T14:33:22;2.90;;;2.20;;
20855;SDS011;63058;49.424;8.420;2022-12-07T14:35:48;3.50;;;2.13;;
20855;SDS011;63058;49.424;8.420;2022-12-07T14:38:19;4.95;;;2.20;;
20855;SDS011;63058;49.424;8.420;2022-12-07T14:40:45;3.35;;;2.17;;
20855;SDS011;63058;49.424;8.420;2022-12-07T14:43:12;4.28;;;2.17;;
20855;SDS011;63058;49.424;8.420;2022-12-07T14:45:39;3.75;;;2.00;;
20855;SDS011;63058;49.424;8.420;2022-12-07T14:48:05;6.22;;;2.20;;
20855;SDS011;63058;49.424;8.420;2022-12-07T14:50:38;2.80;;;2.05;;
20855;SDS011;63058;49.424;8.420;2022-12-07T14:53:11;3.03;;;2.28;;
20855;SDS011;63058;49.424;8.420;2022-12-07T14:55:39;4.75;;;2.53;;
20855;SDS011;63058;49.424;8.420;2022-12-07T14:58:05;7.72;;;2.40;;
20855;SDS011;63058;49.424;8.420;2022-12-07T15:00:31;5.40;;;2.53;;
20855;SDS011;63058;49.424;8.420;2022-12-07T15:02:58;4.50;;;2.25;;
20855;SDS011;63058;49.424;8.420;2022-12-07T15:05:24;5.30;;;2.30;;
20855;SDS011;63058;49.424;8.420;2022-12-07T15:07:50;3.20;;;2.35;;
20855;SDS011;63058;49.424;8.420;2022-12-07T15:10:21;4.40;;;3.08;;
20855;SDS011;63058;49.424;8.420;2022-12-07T15:12:48;5.88;;;2.85;;
20855;SDS011;63058;49.424;8.420;2022-12-07T15:15:14;5.13;;;3.07;;
20855;SDS011;63058;49.424;8.420;2022-12-07T15:17:40;5.97;;;3.42;;
20855;SDS011;63058;49.424;8.420;2022-12-07T15:20:08;3.42;;;2.50;;
20855;SDS011;63058;49.424;8.420;2022-12-07T15:22:38;5.17;;;2.87;;
20855;SDS011;63058;49.424;8.420;2022-12-07T15:25:04;3.17;;;2.58;;
20855;SDS011;63058;49.424;8.420;2022-12-07T15:27:30;3.75;;;2.70;;
20855;SDS011;63058;49.424;8.420;2022-12-07T15:29:56;4.88;;;3.10;;
20855;SDS011;63058;49.424;8.420;2022-12-07T15:32:22;4.27;;;2.90;;
20855;SDS011;63058;49.424;8.420;2022-12-07T15:34:48;4.60;;;3.45;;
20855;SDS011;63058;49.424;8.420;2022-12-07T15:37:15;5.53;;;2.97;;
20855;SDS011;63058;49.424;8.420;2022-12-07T15:39:41;4.93;;;3.10;;
20855;SDS011;63058;49.424;8.420;2022-12-07T15:42:07;4.00;;;3.35;;
20855;SDS011;63058;49.424;8.420;2022-12-07T15:44:33;3.65;;;2.60;;
20855;SDS011;63058;49.424;8.420;2022-12-07T15:47:17;4.65;;;2.42;;
20855;SDS011;63058;49.424;8.420;2022-12-07T15:49:42;4.28;;;3.03;;
20855;SDS011;63058;49.424;8.420;2022-12-07T15:52:08;4.22;;;2.85;;
20855;SDS011;63058;49.424;8.420;2022-12-07T15:54:34;5.70;;;3.13;;
20855;SDS011;63058;49.424;8.420;2022-12-07T15:57:00;5.03;;;3.27;;
20855;SDS011;63058;49.424;8.420;2022-12-07T15:59:26;4.10;;;3.03;;
20855;SDS011;63058;49.424;8.420;2022-12-07T16:01:53;4.75;;;3.30;;
20855;SDS011;63058;49.424;8.420;2022-12-07T16:04:19;5.57;;;3.50;;
20855;SDS011;63058;49.424;8.420;2022-12-07T16:06:45;6.53;;;3.78;;
20855;SDS011;63058;49.424;8.420;2022-12-07T16:09:11;4.80;;;3.25;;
20855;SDS011;63058;49.424;8.420;2022-12-07T16:11:37;5.40;;;3.80;;
20855;SDS011;63058;49.424;8.420;2022-12-07T16:14:03;5.10;;;3.63;;
20855;SDS011;63058;49.424;8.420;2022-12-07T16:16:28;5.17;;;3.60;;
20855;SDS011;63058;49.424;8.420;2022-12-07T16:18:55;5.60;;;3.88;;
20855;SDS011;63058;49.424;8.420;2022-12-07T16:21:22;7.50;;;4.10;;
20855;SDS011;63058;49.424;8.420;2022-12-07T16:23:48;5.60;;;4.20;;
20855;SDS011;63058;49.424;8.420;2022-12-07T16:26:15;5.63;;;3.90;;
20855;SDS011;63058;49.424;8.420;2022-12-07T16:28:43;7.00;;;4.30;;
20855;SDS011;63058;49.424;8.420;2022-12-07T16:31:11;6.63;;;4.75;;
20855;SDS011;63058;49.424;8.420;2022-12-07T16:33:39;5.18;;;3.90;;
20855;SDS011;63058;49.424;8.420;2022-12-07T18:12:19;13.80;;;8.57;;
20855;SDS011;63058;49.424;8.420;2022-12-07T21:12:20;10.43;;;8.07;;
20855;SDS011;63058;49.424;8.420;2022-12-07T21:14:47;10.60;;;8.13;;
20855;SDS011;63058;49.424;8.420;2022-12-07T21:17:12;9.67;;;8.07;;
20855;SDS011;63058;49.424;8.420;2022-12-07T21:19:39;10.23;;;7.90;;
20855;SDS011;63058;49.424;8.420;2022-12-07T21:22:05;9.90;;;8.03;;
20855;SDS011;63058;49.424;8.420;2022-12-07T21:24:31;11.13;;;8.37;;
20855;SDS011;63058;49.424;8.420;2022-12-07T21:26:57;9.60;;;7.67;;
20855;SDS011;63058;49.424;8.420;2022-12-07T21:29:22;10.73;;;7.63;;
20855;SDS011;63058;49.424;8.420;2022-12-07T21:31:48;11.13;;;8.23;;
20855;SDS011;63058;49.424;8.420;2022-12-07T21:34:14;9.20;;;7.27;;
20855;SDS011;63058;49.424;8.420;2022-12-07T21:36:40;11.20;;;7.63;;
20855;SDS011;63058;49.424;8.420;2022-12-07T21:39:06;10.27;;;7.93;;
20855;SDS011;63058;49.424;8.420;2022-12-07T21:41:35;10.67;;;8.33;;
20855;SDS011;63058;49.424;8.420;2022-12-07T21:44:01;11.90;;;7.97;;
20855;SDS011;63058;49.424;8.420;2022-12-07T21:46:29;12.60;;;8.33;;
20855;SDS011;63058;49.424;8.420;2022-12-07T21:48:56;10.53;;;7.80;;
20855;SDS011;63058;49.424;8.420;2022-12-07T21:51:24;11.47;;;8.00;;
20855;SDS011;63058;49.424;8.420;2022-12-07T21:53:51;9.80;;;8.03;;
20855;SDS011;63058;49.424;8.420;2022-12-07T21:56:23;12.10;;;8.57;;
20855;SDS011;63058;49.424;8.420;2022-12-07T21:58:53;11.57;;;8.23;;
20855;SDS011;63058;49.424;8.420;2022-12-07T22:01:24;11.23;;;8.00;;
20855;SDS011;63058;49.424;8.420;2022-12-07T22:03:52;10.20;;;7.67;;
20855;SDS011;63058;49.424;8.420;2022-12-07T22:06:19;10.60;;;7.40;;
20855;SDS011;63058;49.424;8.420;2022-12-07T22:08:48;11.00;;;7.00;;
20855;SDS011;63058;49.424;8.420;2022-12-07T22:11:14;12.83;;;8.23;;
20855;SDS011;63058;49.424;8.420;2022-12-07T22:13:41;10.53;;;7.80;;
20855;SDS011;63058;49.424;8.420;2022-12-07T22:16:26;12.40;;;8.10;;
20855;SDS011;63058;49.424;8.420;2022-12-07T22:18:53;12.20;;;7.87;;
20855;SDS011;63058;49.424;8.420;2022-12-07T22:21:19;11.20;;;7.80;;
20855;SDS011;63058;49.424;8.420;2022-12-07T22:23:45;10.00;;;7.57;;
20855;SDS011;63058;49.424;8.420;2022-12-07T22:26:12;11.30;;;7.40;;
20855;SDS011;63058;49.424;8.420;2022-12-07T22:28:39;9.17;;;7.20;;
20855;SDS011;63058;49.424;8.420;2022-12-07T22:31:07;9.57;;;7.30;;
20855;SDS011;63058;49.424;8.420;2022-12-07T22:33:34;11.03;;;7.30;;
20855;SDS011;63058;49.424;8.420;2022-12-07T22:36:00;11.47;;;7.43;;
20855;SDS011;63058;49.424;8.420;2022-12-07T22:38:27;9.03;;;6.43;;
20855;SDS011;63058;49.424;8.420;2022-12-07T22:40:53;8.37;;;6.77;;
20855;SDS011;63058;49.424;8.420;2022-12-07T22:43:20;9.40;;;6.50;;
20855;SDS011;63058;49.424;8.420;2022-12-07T22:45:57;9.00;;;6.70;;
20855;SDS011;63058;49.424;8.420;2022-12-07T22:48:26;7.67;;;6.07;;
20855;SDS011;63058;49.424;8.420;2022-12-07T22:50:52;9.73;;;6.93;;
20855;SDS011;63058;49.424;8.420;2022-12-07T22:53:22;9.60;;;6.73;;
20855;SDS011;63058;49.424;8.420;2022-12-07T22:55:50;9.13;;;6.57;;
20855;SDS011;63058;49.424;8.420;2022-12-07T22:58:17;9.33;;;6.73;;
20855;SDS011;63058;49.424;8.420;2022-12-07T23:00:43;9.27;;;6.67;;
20855;SDS011;63058;49.424;8.420;2022-12-07T23:03:09;11.17;;;6.53;;
20855;SDS011;63058;49.424;8.420;2022-12-07T23:05:42;7.73;;;6.13;;
20855;SDS011;63058;49.424;8.420;2022-12-07T23:08:09;8.60;;;6.43;;
20855;SDS011;63058;49.424;8.420;2022-12-07T23:10:36;9.03;;;6.70;;
20855;SDS011;63058;49.424;8.420;2022-12-07T23:13:08;9.43;;;6.20;;
20855;SDS011;63058;49.424;8.420;2022-12-07T23:15:54;10.17;;;7.10;;
20855;SDS011;63058;49.424;8.420;2022-12-07T23:18:20;9.47;;;6.67;;
20855;SDS011;63058;49.424;8.420;2022-12-07T23:20:46;9.07;;;6.87;;
20855;SDS011;63058;49.424;8.420;2022-12-07T23:23:11;11.37;;;7.50;;
20855;SDS011;63058;49.424;8.420;2022-12-07T23:25:37;9.60;;;6.70;;
20855;SDS011;63058;49.424;8.420;2022-12-07T23:28:03;10.40;;;7.30;;
20855;SDS011;63058;49.424;8.420;2022-12-07T23:30:29;10.90;;;6.90;;
20855;SDS011;63058;49.424;8.420;2022-12-07T23:32:55;12.87;;;7.20;;
20855;SDS011;63058;49.424;8.420;2022-12-07T23:35:21;9.90;;;7.10;;
20855;SDS011;63058;49.424;8.420;2022-12-07T23:37:47;10.97;;;7.40;;
20855;SDS011;63058;49.424;8.420;2022-12-07T23:40:13;10.73;;;7.17;;
20855;SDS011;63058;49.424;8.420;2022-12-07T23:42:38;10.80;;;7.03;;
20855;SDS011;63058;49.424;8.420;2022-12-07T23:45:04;8.83;;;6.70;;
20855;SDS011;63058;49.424;8.420;2022-12-07T23:47:30;10.17;;;6.53;;
20855;SDS011;63058;49.424;8.420;2022-12-07T23:49:56;9.83;;;7.03;;
20855;SDS011;63058;49.424;8.420;2022-12-07T23:52:22;9.80;;;6.43;;
20855;SDS011;63058;49.424;8.420;2022-12-07T23:54:48;10.40;;;6.77;;
20855;SDS011;63058;49.424;8.420;2022-12-07T23:57:14;11.93;;;6.80;;
20855;SDS011;63058;49.424;8.420;2022-12-07T23:59:39;10.33;;;7.07;;
